Time;durP1;ratioP1;P1;durP2;ratioP2;P2;SDS_P1;SDS_P2;PMS_P1;PMS_P2;Temp;Humidity;BMP_temperature;BMP_pressure;BME280_temperature;BME280_humidity;BME280_pressure;Samples;Min_cycle;Max_cycle;Signal;HPM_P1;HPM_P2
2022/07/27 00:01:48;;;;;;;1.80;1.70;;;19.10;99.90;;;;;;4975598;28;20245;-80
2022/07/27 00:04:15;;;;;;;1.70;1.60;;;19.10;99.90;;;;;;4973938;28;20253;-80
2022/07/27 00:06:43;;;;;;;1.57;1.43;;;19.10;99.90;;;;;;4976127;28;20674;-80
2022/07/27 00:09:10;;;;;;;2.17;1.93;;;19.00;99.90;;;;;;4974336;28;20245;-80
2022/07/27 00:11:36;;;;;;;2.10;2.00;;;19.00;99.90;;;;;;4974675;28;20238;-80
2022/07/27 00:14:04;;;;;;;2.27;2.07;;;19.00;99.90;;;;;;4975777;28;20210;-80
2022/07/27 00:16:32;;;;;;;2.10;2.00;;;19.10;99.90;;;;;;4975819;28;20201;-80
2022/07/27 00:18:59;;;;;;;2.00;1.90;;;19.10;99.90;;;;;;4976016;28;20190;-80
2022/07/27 00:21:25;;;;;;;2.03;1.90;;;19.10;99.90;;;;;;4976162;28;20206;-80
2022/07/27 00:23:53;;;;;;;1.70;1.60;;;19.10;99.90;;;;;;4974749;28;20202;-79
2022/07/27 00:26:20;;;;;;;1.70;1.60;;;19.10;99.90;;;;;;4975123;28;20677;-80
2022/07/27 00:28:46;;;;;;;2.03;1.93;;;19.10;99.90;;;;;;4976209;28;20683;-80
2022/07/27 00:31:13;;;;;;;2.13;2.03;;;19.10;99.90;;;;;;4976418;28;20271;-80
2022/07/27 00:33:41;;;;;;;2.00;1.90;;;19.10;99.90;;;;;;4976238;28;20815;-80
2022/07/27 00:36:09;;;;;;;2.53;2.33;;;19.10;99.90;;;;;;4976916;28;20316;-79
2022/07/27 00:38:36;;;;;;;2.00;1.90;;;19.10;99.90;;;;;;4979247;28;20202;-80
2022/07/27 00:41:03;;;;;;;2.27;2.07;;;19.10;99.90;;;;;;4979586;28;20289;-80
2022/07/27 00:43:29;;;;;;;2.10;2.00;;;19.10;99.90;;;;;;4979566;28;20707;-80
2022/07/27 00:45:56;;;;;;;2.10;2.00;;;19.10;99.90;;;;;;4979494;28;20632;-79
2022/07/27 00:48:23;;;;;;;2.80;2.20;;;19.10;99.90;;;;;;4979062;28;20198;-80
2022/07/27 00:50:51;;;;;;;2.10;1.90;;;19.10;99.90;;;;;;4978234;28;20230;-80
2022/07/27 00:53:18;;;;;;;4.30;4.10;;;19.10;99.90;;;;;;4978582;28;20203;-80
2022/07/27 00:55:45;;;;;;;4.47;4.17;;;19.10;99.90;;;;;;4979527;28;20254;-79
2022/07/27 00:58:12;;;;;;;4.40;4.10;;;19.00;99.90;;;;;;4978492;28;20249;-80
2022/07/27 01:00:39;;;;;;;4.60;4.30;;;19.00;99.90;;;;;;4969655;28;20647;-80
2022/07/27 01:03:06;;;;;;;4.73;4.43;;;19.00;99.90;;;;;;4970408;28;20743;-80
2022/07/27 01:05:36;;;;;;;4.60;4.30;;;18.90;99.90;;;;;;4978417;28;20206;-80
2022/07/27 01:08:07;;;;;;;4.60;4.30;;;18.90;99.90;;;;;;4978203;28;20237;-80
2022/07/27 01:10:34;;;;;;;4.60;4.30;;;18.70;99.90;;;;;;4979603;28;20230;-80
2022/07/27 01:13:01;;;;;;;4.43;4.13;;;18.70;99.90;;;;;;4978398;28;20206;-80
2022/07/27 01:15:28;;;;;;;4.50;4.30;;;18.60;99.90;;;;;;4980197;28;20261;-79
2022/07/27 01:17:55;;;;;;;4.73;4.40;;;18.50;99.90;;;;;;4982031;28;20210;-79
2022/07/27 01:20:22;;;;;;;4.50;4.20;;;18.40;99.90;;;;;;4981529;28;20227;-80
2022/07/27 01:22:50;;;;;;;4.70;4.40;;;18.40;99.90;;;;;;4981476;28;20245;-79
2022/07/27 01:25:16;;;;;;;4.60;4.30;;;18.30;99.90;;;;;;4982485;28;20193;-79
2022/07/27 01:27:43;;;;;;;5.00;4.60;;;18.30;99.90;;;;;;4981393;28;20221;-79
2022/07/27 01:32:59;;;;;;;4.70;4.40;;;18.30;99.90;;;;;;4979589;28;20194;-80
2022/07/27 01:35:25;;;;;;;4.90;4.60;;;18.20;99.90;;;;;;4982716;28;20244;-79
2022/07/27 01:37:53;;;;;;;5.17;4.67;;;18.20;99.90;;;;;;4980808;28;20269;-79
2022/07/27 01:40:20;;;;;;;4.83;4.50;;;18.20;99.90;;;;;;4982714;28;20637;-79
2022/07/27 01:42:47;;;;;;;4.77;4.33;;;18.10;99.90;;;;;;4980055;28;20209;-79
2022/07/27 01:45:14;;;;;;;5.20;4.73;;;18.10;99.90;;;;;;4981939;28;20200;-80
2022/07/27 01:47:41;;;;;;;5.10;4.80;;;18.00;99.90;;;;;;4981303;28;20212;-79
2022/07/27 01:50:08;;;;;;;4.73;4.43;;;18.00;99.90;;;;;;4981491;28;20213;-80
2022/07/27 01:52:35;;;;;;;4.73;4.43;;;17.90;99.90;;;;;;4981070;28;20209;-80
2022/07/27 01:55:04;;;;;;;5.30;4.90;;;17.90;99.90;;;;;;4981347;28;20257;-79
2022/07/27 01:57:31;;;;;;;4.80;4.50;;;17.90;99.90;;;;;;4982595;28;20217;-79
2022/07/27 01:59:59;;;;;;;5.00;4.60;;;17.90;99.90;;;;;;4982643;28;20261;-79
2022/07/27 02:02:25;;;;;;;5.10;4.80;;;17.80;99.90;;;;;;4980544;28;20201;-80
2022/07/27 02:04:52;;;;;;;4.80;4.50;;;17.80;99.90;;;;;;4974725;28;20714;-79
2022/07/27 02:07:19;;;;;;;4.70;4.40;;;17.70;99.90;;;;;;4975080;28;20271;-80
2022/07/27 02:09:46;;;;;;;4.73;4.40;;;17.60;99.90;;;;;;4973419;28;20220;-79
2022/07/27 02:14:58;;;;;;;5.27;4.87;;;17.50;99.90;;;;;;4973109;28;20196;-80
2022/07/27 02:17:25;;;;;;;2.23;2.07;;;17.40;99.90;;;;;;4973360;28;20208;-79
2022/07/27 02:19:52;;;;;;;2.30;2.10;;;17.40;99.90;;;;;;4974266;28;20286;-80
2022/07/27 02:22:19;;;;;;;2.53;2.33;;;17.40;99.90;;;;;;4974828;28;20263;-79
2022/07/27 02:24:45;;;;;;;1.97;1.87;;;17.30;99.90;;;;;;4974123;28;20208;-79
2022/07/27 02:27:14;;;;;;;2.40;2.27;;;17.30;99.90;;;;;;4974371;28;20199;-78
2022/07/27 02:29:41;;;;;;;2.90;2.60;;;17.30;99.90;;;;;;4973169;28;20235;-79
2022/07/27 02:32:07;;;;;;;2.33;2.23;;;17.30;99.90;;;;;;4974239;28;20199;-79
2022/07/27 02:34:34;;;;;;;2.80;2.60;;;17.40;99.90;;;;;;4974101;28;20212;-80
2022/07/27 02:37:01;;;;;;;2.97;2.67;;;17.30;99.90;;;;;;4974249;28;20201;-79
2022/07/27 02:39:28;;;;;;;2.47;2.30;;;17.30;99.90;;;;;;4972837;28;20655;-79
2022/07/27 02:41:55;;;;;;;2.40;2.30;;;17.40;99.90;;;;;;4974182;28;20254;-80
2022/07/27 02:44:23;;;;;;;2.30;2.10;;;17.50;99.90;;;;;;4982801;28;20201;-79
2022/07/27 02:46:49;;;;;;;2.10;2.00;;;17.60;99.90;;;;;;4972486;28;20202;-79
2022/07/27 02:49:16;;;;;;;2.80;2.30;;;17.60;99.90;;;;;;4974235;28;20255;-80
2022/07/27 02:51:43;;;;;;;2.20;2.10;;;17.60;99.90;;;;;;4972562;28;20740;-77
2022/07/27 02:54:10;;;;;;;2.40;2.20;;;17.60;99.90;;;;;;4979092;28;20779;-77
2022/07/27 02:56:36;;;;;;;2.23;2.03;;;17.60;99.90;;;;;;4978460;28;20262;-76
2022/07/27 02:59:03;;;;;;;2.40;2.20;;;17.60;99.90;;;;;;4971325;28;20260;-77
2022/07/27 03:01:31;;;;;;;2.97;2.50;;;17.60;99.90;;;;;;4966832;28;20198;-77
2022/07/27 03:03:58;;;;;;;2.50;2.30;;;17.50;99.90;;;;;;4972573;28;20260;-77
2022/07/27 03:06:25;;;;;;;2.80;2.60;;;17.50;99.90;;;;;;4973052;28;20215;-77
2022/07/27 03:08:52;;;;;;;2.40;2.20;;;17.40;99.90;;;;;;4972664;28;20614;-77
2022/07/27 03:11:19;;;;;;;2.73;2.53;;;17.40;99.90;;;;;;4973087;28;20220;-77
2022/07/27 03:13:45;;;;;;;2.50;2.37;;;17.30;99.90;;;;;;4971483;28;20212;-77
2022/07/27 03:16:12;;;;;;;2.80;2.50;;;17.30;99.90;;;;;;4971340;28;20239;-77
2022/07/27 03:18:40;;;;;;;2.30;2.20;;;17.20;99.90;;;;;;4971103;28;20193;-76
2022/07/27 03:21:07;;;;;;;2.40;2.20;;;17.20;99.90;;;;;;4972821;28;20282;-77
2022/07/27 03:23:34;;;;;;;2.63;2.43;;;17.20;99.90;;;;;;4972962;28;20251;-77
2022/07/27 03:26:01;;;;;;;3.23;2.67;;;17.10;99.90;;;;;;4974204;28;20281;-77
2022/07/27 03:28:28;;;;;;;3.33;2.87;;;17.10;99.90;;;;;;4973295;28;20255;-77
2022/07/27 03:30:55;;;;;;;2.70;2.50;;;17.00;99.90;;;;;;4971712;28;20750;-77
2022/07/27 03:33:22;;;;;;;3.10;2.80;;;17.00;99.90;;;;;;4973141;28;20189;-77
2022/07/27 03:35:50;;;;;;;3.13;2.87;;;17.00;99.90;;;;;;4972596;28;20259;-78
2022/07/27 03:38:17;;;;;;;4.50;2.70;;;16.90;99.90;;;;;;4976025;28;20195;-78
2022/07/27 03:40:44;;;;;;;2.80;2.60;;;17.00;99.90;;;;;;4968552;28;20220;-76
2022/07/27 03:43:11;;;;;;;2.57;2.40;;;16.90;99.90;;;;;;4964937;28;20732;-76
2022/07/27 03:45:38;;;;;;;2.70;2.50;;;17.00;99.90;;;;;;4972891;28;20262;-76
2022/07/27 03:48:05;;;;;;;2.70;2.50;;;17.00;99.90;;;;;;4972827;28;20705;-76
2022/07/27 03:50:32;;;;;;;2.60;2.40;;;17.00;99.90;;;;;;4972637;28;20230;-76
2022/07/27 03:53:00;;;;;;;2.90;2.70;;;17.00;99.90;;;;;;4971366;28;20212;-76
2022/07/27 03:55:27;;;;;;;2.43;2.33;;;17.00;99.90;;;;;;4972488;28;20721;-76
2022/07/27 03:57:54;;;;;;;3.20;2.40;;;17.00;99.90;;;;;;4972827;28;20202;-76
2022/07/27 04:00:21;;;;;;;2.60;2.50;;;17.10;99.90;;;;;;4972581;28;20209;-76
2022/07/27 04:02:48;;;;;;;2.60;2.40;;;17.10;99.90;;;;;;4972664;28;20200;-76
2022/07/27 04:05:15;;;;;;;2.60;2.40;;;17.10;99.90;;;;;;4972533;28;20232;-76
2022/07/27 04:07:42;;;;;;;2.70;2.50;;;17.20;99.90;;;;;;4972601;28;20752;-76
2022/07/27 04:10:11;;;;;;;2.23;2.10;;;17.20;99.90;;;;;;4971312;28;20221;-76
2022/07/27 04:12:38;;;;;;;2.70;2.50;;;17.20;99.90;;;;;;4976601;28;20541;-76
2022/07/27 04:15:06;;;;;;;2.40;2.20;;;17.20;99.90;;;;;;4974956;28;20275;-76
2022/07/27 04:17:33;;;;;;;2.80;2.60;;;17.20;99.90;;;;;;4975086;28;20198;-76
2022/07/27 04:20:00;;;;;;;2.20;2.00;;;17.20;99.90;;;;;;4974916;28;20339;-76
2022/07/27 04:22:27;;;;;;;2.27;2.10;;;17.30;99.90;;;;;;4976053;28;20206;-76
2022/07/27 04:24:54;;;;;;;2.37;2.27;;;17.20;99.90;;;;;;4979558;28;20658;-76
2022/07/27 04:27:22;;;;;;;2.80;2.60;;;17.20;99.90;;;;;;4976321;28;20287;-76
2022/07/27 04:29:49;;;;;;;2.57;2.37;;;17.20;99.90;;;;;;4975937;28;20303;-76
2022/07/27 04:32:15;;;;;;;2.40;2.20;;;17.20;99.90;;;;;;4976214;28;20691;-76
2022/07/27 04:34:42;;;;;;;2.50;2.30;;;17.30;99.90;;;;;;4976045;28;20198;-76
2022/07/27 04:37:09;;;;;;;2.33;2.20;;;17.30;99.90;;;;;;4973959;28;20204;-76
2022/07/27 04:39:36;;;;;;;2.43;2.23;;;17.40;99.90;;;;;;4976087;28;20232;-76
2022/07/27 04:42:02;;;;;;;2.40;2.30;;;17.50;99.90;;;;;;4975960;28;20547;-76
2022/07/27 04:44:31;;;;;;;2.30;2.10;;;17.60;99.90;;;;;;4975861;28;20755;-76
2022/07/27 04:46:57;;;;;;;2.27;2.07;;;17.60;99.90;;;;;;4976059;28;20197;-76
2022/07/27 04:49:24;;;;;;;2.33;2.17;;;17.70;99.90;;;;;;4974621;28;20264;-76
2022/07/27 04:51:51;;;;;;;2.43;2.27;;;17.80;99.90;;;;;;4975810;28;20232;-76
2022/07/27 04:54:18;;;;;;;3.23;2.50;;;17.80;99.90;;;;;;4975007;28;20663;-76
2022/07/27 04:56:45;;;;;;;2.70;2.50;;;17.80;99.90;;;;;;4975666;28;20194;-77
2022/07/27 04:59:11;;;;;;;2.83;2.63;;;18.00;99.90;;;;;;4975703;28;20710;-76
2022/07/27 05:01:39;;;;;;;2.60;2.40;;;18.00;99.90;;;;;;4974367;28;20663;-76
2022/07/27 05:04:06;;;;;;;2.57;2.37;;;18.10;99.90;;;;;;4975324;28;20193;-76
2022/07/27 05:06:33;;;;;;;2.60;2.40;;;18.20;99.90;;;;;;4974517;28;20208;-77
2022/07/27 05:09:00;;;;;;;2.50;2.30;;;18.30;99.90;;;;;;4975422;28;20273;-76
2022/07/27 05:11:27;;;;;;;2.60;2.40;;;18.40;99.90;;;;;;4978280;28;20234;-77
2022/07/27 05:13:53;;;;;;;2.93;2.63;;;18.40;99.90;;;;;;4975781;28;20198;-75
2022/07/27 05:16:20;;;;;;;3.10;2.80;;;18.50;99.90;;;;;;4974212;28;20249;-76
2022/07/27 05:18:48;;;;;;;2.83;2.63;;;18.60;99.90;;;;;;4975382;28;20198;-76
2022/07/27 05:21:15;;;;;;;2.73;2.50;;;18.60;99.90;;;;;;4975138;28;20491;-75
2022/07/27 05:23:42;;;;;;;2.90;2.70;;;18.70;99.90;;;;;;4974200;28;20203;-75
2022/07/27 05:26:09;;;;;;;2.77;2.57;;;18.80;99.90;;;;;;4977461;28;20250;-75
2022/07/27 05:28:36;;;;;;;3.47;2.70;;;18.90;99.90;;;;;;4975180;28;20208;-76
2022/07/27 05:31:02;;;;;;;3.23;2.77;;;18.90;99.90;;;;;;4974950;28;20306;-75
2022/07/27 05:33:29;;;;;;;2.97;2.77;;;19.00;99.90;;;;;;4974912;28;20668;-75
2022/07/27 05:35:57;;;;;;;3.00;2.80;;;19.00;99.90;;;;;;4973613;28;20206;-75
2022/07/27 05:38:24;;;;;;;3.00;2.80;;;19.00;99.90;;;;;;4975608;28;20202;-75
2022/07/27 05:40:51;;;;;;;3.03;2.83;;;19.10;99.90;;;;;;4977185;28;20254;-76
2022/07/27 05:43:18;;;;;;;3.33;2.80;;;19.10;99.90;;;;;;4974668;28;20665;-75
2022/07/27 05:45:45;;;;;;;3.13;2.93;;;19.10;99.90;;;;;;4974745;28;20443;-76
2022/07/27 05:48:12;;;;;;;3.07;2.80;;;19.20;99.90;;;;;;4973680;28;20201;-76
2022/07/27 05:50:39;;;;;;;3.40;3.03;;;19.20;99.90;;;;;;4975336;28;20257;-78
2022/07/27 05:53:07;;;;;;;3.60;2.90;;;19.30;99.90;;;;;;4977095;28;20726;-78
2022/07/27 05:55:34;;;;;;;3.80;3.20;;;19.40;99.90;;;;;;4977566;28;20691;-76
2022/07/27 05:58:01;;;;;;;3.30;3.10;;;19.50;99.90;;;;;;4974517;28;20673;-76
2022/07/27 06:00:28;;;;;;;3.80;3.50;;;19.60;99.90;;;;;;4974418;28;20223;-76
2022/07/27 06:02:54;;;;;;;6.23;3.40;;;19.80;99.90;;;;;;4973366;28;20209;-76
2022/07/27 06:05:21;;;;;;;4.37;3.97;;;20.00;99.90;;;;;;4974246;28;20277;-76
2022/07/27 06:07:59;;;;;;;4.17;3.80;;;20.00;99.90;;;;;;4974775;28;20614;-76
2022/07/27 06:10:28;;;;;;;4.70;4.30;;;20.10;99.90;;;;;;4973312;28;20227;-77
2022/07/27 06:12:55;;;;;;;4.17;3.77;;;20.20;99.90;;;;;;4972231;28;20201;-76
2022/07/27 06:15:22;;;;;;;4.60;4.20;;;20.30;99.90;;;;;;4974006;28;20253;-76
2022/07/27 06:17:51;;;;;;;4.43;3.77;;;20.40;99.90;;;;;;4974243;28;20200;-76
2022/07/27 06:20:18;;;;;;;4.20;3.80;;;20.50;99.90;;;;;;4974117;28;20229;-76
2022/07/27 06:22:47;;;;;;;5.77;4.37;;;20.70;99.90;;;;;;4974337;28;20214;-76
2022/07/27 06:25:14;;;;;;;4.37;4.07;;;20.90;99.90;;;;;;4973915;28;20753;-76
2022/07/27 06:27:42;;;;;;;4.83;4.43;;;21.20;99.90;;;;;;4974072;28;20213;-76
2022/07/27 06:30:10;;;;;;;5.17;4.73;;;21.20;99.90;;;;;;4973906;28;20222;-76
2022/07/27 06:32:37;;;;;;;5.07;4.70;;;21.40;99.90;;;;;;4973919;28;20252;-76
2022/07/27 06:35:04;;;;;;;5.77;5.30;;;21.80;99.90;;;;;;4972901;28;20619;-76
2022/07/27 06:37:31;;;;;;;5.80;5.40;;;22.20;99.90;;;;;;4973442;28;20554;-76
2022/07/27 06:39:59;;;;;;;5.87;5.37;;;22.30;99.90;;;;;;4971274;28;20286;-74
2022/07/27 06:42:26;;;;;;;5.57;4.40;;;22.80;99.90;;;;;;4968875;28;20305;-76
2022/07/27 06:44:55;;;;;;;5.93;5.50;;;23.40;99.90;;;;;;4968979;28;20201;-76
2022/07/27 06:47:22;;;;;;;6.90;6.30;;;24.00;99.90;;;;;;4973098;28;20659;-77
2022/07/27 06:49:49;;;;;;;5.07;4.60;;;24.40;99.90;;;;;;4970271;28;20635;-76
2022/07/27 06:52:16;;;;;;;4.70;4.30;;;24.70;99.90;;;;;;4971393;28;20680;-77
2022/07/27 06:54:43;;;;;;;3.93;3.50;;;25.00;99.90;;;;;;4972940;28;20194;-77
2022/07/27 06:57:10;;;;;;;3.90;3.47;;;25.00;99.90;;;;;;4971450;28;20197;-76
2022/07/27 06:59:37;;;;;;;5.10;4.60;;;24.50;99.90;;;;;;4968444;28;20309;-76
2022/07/27 07:02:05;;;;;;;6.40;3.90;;;24.40;99.90;;;;;;4972693;28;20272;-76
2022/07/27 07:04:32;;;;;;;4.93;4.53;;;24.70;99.90;;;;;;4972543;28;20334;-77
2022/07/27 07:07:00;;;;;;;5.50;5.00;;;24.80;99.90;;;;;;4972783;28;20314;-76
2022/07/27 07:09:27;;;;;;;5.27;4.80;;;24.90;99.90;;;;;;4972795;28;20312;-76
2022/07/27 07:11:54;;;;;;;4.07;3.50;;;24.50;99.90;;;;;;4971347;28;20202;-77
2022/07/27 07:14:21;;;;;;;4.80;3.30;;;23.90;99.90;;;;;;4971114;28;20671;-77
2022/07/27 07:16:48;;;;;;;3.20;2.93;;;23.80;99.90;;;;;;4972912;28;20202;-76
2022/07/27 07:19:16;;;;;;;3.97;3.20;;;24.20;99.90;;;;;;4971828;28;20325;-77
2022/07/27 07:21:43;;;;;;;3.33;3.03;;;24.20;99.90;;;;;;4969791;28;20269;-76
2022/07/27 07:24:10;;;;;;;5.53;3.43;;;24.20;99.90;;;;;;4969053;28;20207;-76
2022/07/27 07:26:38;;;;;;;3.60;3.30;;;23.90;99.90;;;;;;4975020;28;20202;-77
2022/07/27 07:29:05;;;;;;;5.03;4.57;;;24.00;99.90;;;;;;4968964;28;20229;-76
2022/07/27 07:31:32;;;;;;;5.77;5.20;;;23.80;99.90;;;;;;4971788;28;20636;-76
2022/07/27 07:33:59;;;;;;;5.87;5.37;;;23.90;99.90;;;;;;4972714;28;20201;-76
2022/07/27 07:36:27;;;;;;;4.63;4.20;;;24.00;99.90;;;;;;4971923;28;20202;-76
2022/07/27 07:38:54;;;;;;;5.93;5.43;;;24.20;99.90;;;;;;4973338;28;20202;-77
2022/07/27 07:41:22;;;;;;;5.93;5.43;;;24.30;99.90;;;;;;4978601;28;20210;-77
2022/07/27 07:43:50;;;;;;;6.00;5.40;;;24.20;99.90;;;;;;4971420;28;20249;-76
2022/07/27 07:46:16;;;;;;;6.00;5.40;;;24.00;99.90;;;;;;4971222;28;20265;-76
2022/07/27 07:48:43;;;;;;;6.23;5.60;;;23.60;99.90;;;;;;4972902;28;20260;-76
2022/07/27 07:51:10;;;;;;;6.10;5.60;;;23.30;99.90;;;;;;4968723;28;20213;-76
2022/07/27 07:53:39;;;;;;;5.70;5.30;;;23.50;99.90;;;;;;4972484;28;20257;-77
2022/07/27 07:56:05;;;;;;;6.87;6.30;;;23.80;99.90;;;;;;4971247;28;20194;-77
2022/07/27 07:58:32;;;;;;;6.20;5.70;;;23.80;99.90;;;;;;4973070;28;20671;-77
2022/07/27 08:00:59;;;;;;;5.17;4.67;;;24.00;99.90;;;;;;4971333;28;20583;-77
2022/07/27 08:03:26;;;;;;;6.20;5.10;;;24.20;99.90;;;;;;4972599;28;20198;-76
2022/07/27 08:05:53;;;;;;;5.33;4.70;;;24.10;99.90;;;;;;4972638;28;20738;-77
2022/07/27 08:08:19;;;;;;;5.63;3.50;;;24.10;99.90;;;;;;4971288;28;20252;-77
2022/07/27 08:10:48;;;;;;;4.17;3.77;;;24.70;99.90;;;;;;4974549;28;20221;-75
2022/07/27 08:13:14;;;;;;;5.13;4.63;;;24.50;99.90;;;;;;4972426;28;20201;-75
2022/07/27 08:15:41;;;;;;;5.20;4.40;;;24.60;99.90;;;;;;4972678;28;20233;-76
2022/07/27 08:18:09;;;;;;;5.10;4.60;;;25.20;99.90;;;;;;4972565;28;20194;-76
2022/07/27 08:20:36;;;;;;;5.67;5.27;;;25.10;99.20;;;;;;4973410;28;20505;-77
2022/07/27 08:23:03;;;;;;;6.73;4.93;;;24.70;99.70;;;;;;4971240;28;20214;-77
2022/07/27 08:25:31;;;;;;;4.23;3.60;;;24.60;99.90;;;;;;4972428;28;20730;-76
2022/07/27 08:27:59;;;;;;;5.03;4.60;;;24.60;99.90;;;;;;4972538;28;20202;-77
2022/07/27 08:30:26;;;;;;;6.60;5.63;;;24.40;99.90;;;;;;4972304;28;20786;-76
2022/07/27 08:32:56;;;;;;;4.43;4.03;;;24.50;99.90;;;;;;4971031;28;20555;-77
2022/07/27 08:35:23;;;;;;;6.00;4.20;;;24.70;99.90;;;;;;4977111;28;20618;-77
2022/07/27 08:37:51;;;;;;;4.50;4.10;;;24.80;99.40;;;;;;4972182;28;20249;-76
2022/07/27 08:40:18;;;;;;;5.37;4.87;;;24.70;99.90;;;;;;4972387;28;20280;-76
2022/07/27 08:42:45;;;;;;;5.00;3.83;;;24.50;99.50;;;;;;4971107;28;20305;-76
2022/07/27 08:45:15;;;;;;;4.40;3.53;;;24.30;99.90;;;;;;4970957;28;20627;-77
2022/07/27 08:47:44;;;;;;;5.53;5.00;;;24.40;99.80;;;;;;4973594;28;20261;-76
2022/07/27 08:50:23;;;;;;;6.37;4.50;;;24.50;99.60;;;;;;4971149;28;20217;-78
2022/07/27 08:52:55;;;;;;;6.20;5.60;;;24.20;99.90;;;;;;4968290;28;20253;-76
2022/07/27 08:55:23;;;;;;;7.00;4.10;;;24.20;99.90;;;;;;4972135;28;20198;-76
2022/07/27 08:57:50;;;;;;;4.33;3.83;;;24.00;99.90;;;;;;4976146;28;20202;-76
2022/07/27 09:00:19;;;;;;;6.67;6.17;;;23.80;99.90;;;;;;4974302;28;20810;-77
2022/07/27 09:02:46;;;;;;;5.70;5.20;;;24.50;99.90;;;;;;4975605;28;20585;-76
2022/07/27 09:05:14;;;;;;;6.13;3.63;;;24.60;99.40;;;;;;4974054;28;20667;-76
2022/07/27 09:07:41;;;;;;;5.17;3.77;;;24.60;99.90;;;;;;4975852;28;20198;-77
2022/07/27 09:10:09;;;;;;;5.20;4.50;;;25.10;99.90;;;;;;4975622;28;20241;-77
2022/07/27 09:12:37;;;;;;;5.70;5.20;;;25.80;99.30;;;;;;4975340;28;20286;-77
2022/07/27 09:15:07;;;;;;;7.10;6.50;;;26.20;99.40;;;;;;4973814;28;20206;-77
2022/07/27 09:17:36;;;;;;;4.10;3.70;;;26.80;96.90;;;;;;4974027;28;20209;-77
2022/07/27 09:20:06;;;;;;;7.10;5.70;;;27.10;97.30;;;;;;4974816;28;20229;-77
2022/07/27 09:22:45;;;;;;;6.97;6.27;;;27.70;97.50;;;;;;4975271;28;20202;-78
2022/07/27 09:25:14;;;;;;;7.20;6.50;;;27.40;96.40;;;;;;4967572;28;20205;-77
2022/07/27 09:27:42;;;;;;;7.37;6.77;;;27.20;96.60;;;;;;4975524;28;20273;-77
2022/07/27 09:30:12;;;;;;;7.20;6.50;;;27.70;96.40;;;;;;4974932;28;20231;-77
2022/07/27 09:32:52;;;;;;;6.10;5.60;;;27.80;96.00;;;;;;4974874;28;20268;-78
2022/07/27 09:35:21;;;;;;;7.20;6.60;;;27.80;96.00;;;;;;4969138;28;20193;-77
2022/07/27 09:37:48;;;;;;;11.10;6.63;;;27.90;95.50;;;;;;4974994;28;20228;-77
2022/07/27 09:40:18;;;;;;;6.50;6.00;;;28.00;96.10;;;;;;4983295;28;20229;-76
2022/07/27 09:42:45;;;;;;;9.37;7.10;;;28.50;95.90;;;;;;4974766;28;20276;-76
2022/07/27 09:45:30;;;;;;;8.27;6.20;;;28.50;94.40;;;;;;4967134;28;20244;-76
2022/07/27 09:48:12;;;;;;;6.87;6.37;;;28.60;94.10;;;;;;4973290;28;20202;-77
2022/07/27 09:50:41;;;;;;;6.63;6.13;;;28.60;94.10;;;;;;4974846;28;20241;-76
2022/07/27 09:53:16;;;;;;;6.83;6.30;;;28.20;95.70;;;;;;4974541;28;20198;-77
2022/07/27 09:55:44;;;;;;;7.10;6.40;;;28.60;94.20;;;;;;4974747;28;20280;-77
2022/07/27 09:58:11;;;;;;;7.93;6.80;;;28.60;94.10;;;;;;4972778;28;20698;-77
2022/07/27 10:00:38;;;;;;;6.80;6.30;;;27.90;94.30;;;;;;4974974;28;20651;-77
2022/07/27 10:03:05;;;;;;;7.27;6.47;;;27.80;94.90;;;;;;4973241;28;20226;-77
2022/07/27 10:05:33;;;;;;;7.07;6.37;;;28.10;94.10;;;;;;4974391;28;20619;-77
2022/07/27 10:08:00;;;;;;;7.43;6.50;;;28.20;94.00;;;;;;4974596;28;20252;-77
2022/07/27 10:10:27;;;;;;;7.30;6.47;;;28.00;94.50;;;;;;4973814;28;20226;-77
2022/07/27 10:12:54;;;;;;;6.73;6.13;;;27.70;93.70;;;;;;4974280;28;20218;-77
2022/07/27 10:15:21;;;;;;;6.33;5.83;;;27.40;94.70;;;;;;4973753;28;20198;-77
2022/07/27 10:17:54;;;;;;;6.97;6.43;;;27.40;94.70;;;;;;4974326;28;20209;-77
2022/07/27 10:20:21;;;;;;;7.10;6.53;;;27.30;94.90;;;;;;4974292;28;20715;-77
2022/07/27 10:22:54;;;;;;;7.30;6.60;;;27.00;94.90;;;;;;4974137;28;20818;-76
2022/07/27 10:25:22;;;;;;;6.50;6.00;;;26.60;95.00;;;;;;4974166;28;20245;-76
2022/07/27 10:28:08;;;;;;;6.63;5.93;;;26.60;95.40;;;;;;4974207;28;20193;-76
2022/07/27 10:30:35;;;;;;;7.13;6.40;;;26.80;95.70;;;;;;4974120;28;20225;-77
2022/07/27 10:33:12;;;;;;;6.03;5.63;;;26.60;96.20;;;;;;4974064;28;20237;-77
2022/07/27 10:35:39;;;;;;;6.20;5.70;;;26.90;96.00;;;;;;4968962;28;20200;-77
2022/07/27 10:38:14;;;;;;;6.60;6.10;;;26.70;95.20;;;;;;4974104;28;20245;-77
2022/07/27 10:40:42;;;;;;;6.60;6.00;;;26.60;95.40;;;;;;4973997;28;20244;-77
2022/07/27 10:43:18;;;;;;;7.17;5.80;;;27.00;96.10;;;;;;4972474;28;20213;-76
2022/07/27 10:45:46;;;;;;;6.17;5.60;;;27.00;96.10;;;;;;4971833;28;20205;-77
2022/07/27 10:48:36;;;;;;;7.40;6.70;;;27.10;95.70;;;;;;4975740;28;20205;-76
2022/07/27 10:51:03;;;;;;;7.70;6.77;;;26.80;94.90;;;;;;4973526;28;20597;-76
2022/07/27 10:53:36;;;;;;;6.20;4.93;;;26.20;95.20;;;;;;4973485;28;20575;-76
2022/07/27 10:56:05;;;;;;;7.40;6.80;;;25.60;96.10;;;;;;4972155;28;20202;-76
2022/07/27 10:58:53;;;;;;;6.63;6.07;;;25.70;97.10;;;;;;4973378;28;20201;-76
2022/07/27 11:01:22;;;;;;;6.47;5.90;;;25.90;96.20;;;;;;4967123;28;20256;-76
2022/07/27 11:03:54;;;;;;;6.63;6.03;;;26.20;96.20;;;;;;4972047;28;20225;-76
2022/07/27 11:06:30;;;;;;;5.47;3.77;;;26.00;95.50;;;;;;4972175;28;20612;-76
2022/07/27 11:09:01;;;;;;;5.07;3.70;;;25.90;95.50;;;;;;4973175;28;20202;-76
2022/07/27 11:11:28;;;;;;;6.73;6.10;;;25.50;96.00;;;;;;4973170;28;20201;-76
2022/07/27 11:13:57;;;;;;;6.60;6.10;;;25.20;96.60;;;;;;4965907;28;20206;-76
2022/07/27 11:16:27;;;;;;;7.60;6.50;;;25.30;96.00;;;;;;4972027;28;20197;-76
2022/07/27 11:19:03;;;;;;;6.53;5.90;;;25.40;95.80;;;;;;4971933;28;20210;-76
2022/07/27 11:21:33;;;;;;;5.40;3.80;;;25.60;95.60;;;;;;4972541;28;20271;-76
2022/07/27 11:24:04;;;;;;;6.60;6.00;;;25.80;95.40;;;;;;4972355;28;20276;-75
2022/07/27 11:26:38;;;;;;;6.40;5.90;;;26.00;95.80;;;;;;4973156;28;20645;-79
2022/07/27 11:29:08;;;;;;;5.90;5.43;;;26.30;94.90;;;;;;4972006;28;20205;-77
2022/07/27 11:31:37;;;;;;;5.80;5.40;;;26.30;94.50;;;;;;4973152;28;20297;-77
2022/07/27 11:34:04;;;;;;;6.67;6.07;;;26.40;94.20;;;;;;4972991;28;20689;-77
2022/07/27 11:36:42;;;;;;;6.90;6.30;;;26.70;94.60;;;;;;4972931;28;20561;-77
2022/07/27 11:39:12;;;;;;;6.80;5.97;;;26.10;95.20;;;;;;4973216;28;20215;-76
2022/07/27 11:41:40;;;;;;;6.00;5.60;;;26.30;95.50;;;;;;4973031;28;20567;-76
2022/07/27 11:44:09;;;;;;;6.73;6.10;;;26.40;95.90;;;;;;4972303;28;20900;-76
2022/07/27 11:46:41;;;;;;;6.33;5.73;;;26.50;94.90;;;;;;4972950;28;20198;-76
2022/07/27 11:49:10;;;;;;;6.60;5.93;;;26.60;95.50;;;;;;4972786;28;20542;-76
2022/07/27 11:51:40;;;;;;;6.40;5.80;;;26.40;95.10;;;;;;4971432;28;20202;-78
2022/07/27 11:54:09;;;;;;;6.30;5.80;;;26.20;94.90;;;;;;4972706;28;20193;-76
2022/07/27 11:56:38;;;;;;;3.77;3.27;;;25.80;94.90;;;;;;4973091;28;20613;-76
2022/07/27 11:59:14;;;;;;;3.83;3.20;;;25.80;94.90;;;;;;4972841;28;20193;-76
2022/07/27 12:01:43;;;;;;;6.40;5.77;;;25.60;95.20;;;;;;4971629;28;20206;-77
2022/07/27 12:04:19;;;;;;;5.00;4.60;;;25.40;95.90;;;;;;4963372;28;20530;-77
2022/07/27 12:06:49;;;;;;;6.10;5.60;;;25.40;95.30;;;;;;4972695;28;20197;-77
2022/07/27 12:09:17;;;;;;;5.93;5.27;;;25.50;95.00;;;;;;4971477;28;20217;-77
2022/07/27 12:11:49;;;;;;;3.23;2.90;;;25.80;94.40;;;;;;4971428;28;20206;-77
2022/07/27 12:14:16;;;;;;;5.70;3.07;;;25.80;94.00;;;;;;4972540;28;20190;-77
2022/07/27 12:16:44;;;;;;;3.10;2.50;;;25.90;93.20;;;;;;4972704;28;20225;-77
2022/07/27 12:19:11;;;;;;;3.60;2.97;;;26.00;93.90;;;;;;4963404;28;20225;-77
2022/07/27 12:21:38;;;;;;;3.00;2.70;;;26.20;93.10;;;;;;4972541;28;20198;-77
2022/07/27 12:24:05;;;;;;;3.33;2.80;;;26.00;93.70;;;;;;4971154;28;20711;-77
2022/07/27 12:26:32;;;;;;;5.60;5.10;;;26.20;93.20;;;;;;4972475;28;20202;-77
2022/07/27 12:29:08;;;;;;;4.77;4.37;;;26.20;93.70;;;;;;4971026;28;20664;-76
2022/07/27 12:31:36;;;;;;;5.40;5.00;;;26.30;93.30;;;;;;4968734;28;20194;-77
2022/07/27 12:34:05;;;;;;;5.10;4.60;;;26.10;92.90;;;;;;4975888;28;20829;-76
2022/07/27 12:36:32;;;;;;;5.50;5.00;;;26.10;92.70;;;;;;4975055;28;20671;-77
2022/07/27 12:38:59;;;;;;;5.43;4.93;;;26.20;93.00;;;;;;4976023;28;20202;-77
2022/07/27 12:41:28;;;;;;;5.53;4.97;;;26.00;92.60;;;;;;4976150;28;20198;-77
2022/07/27 12:44:08;;;;;;;5.10;4.60;;;26.40;92.80;;;;;;4974461;28;20217;-77
2022/07/27 12:46:50;;;;;;;5.00;4.57;;;26.40;92.30;;;;;;4976092;28;20260;-77
2022/07/27 12:49:17;;;;;;;3.53;2.70;;;26.30;92.90;;;;;;4984051;28;20225;-77
2022/07/27 12:51:44;;;;;;;5.50;5.00;;;26.20;93.30;;;;;;4971834;28;20281;-76
2022/07/27 12:54:11;;;;;;;6.43;5.83;;;26.50;93.40;;;;;;4973163;28;20727;-77
2022/07/27 12:56:39;;;;;;;6.30;5.70;;;26.80;94.40;;;;;;4975565;28;20289;-77
2022/07/27 12:59:07;;;;;;;3.00;2.63;;;27.00;93.30;;;;;;4975724;28;20297;-77